Time;durP1;ratioP1;P1;durP2;ratioP2;P2;SDS_P1;SDS_P2;PMS_P1;PMS_P2;Temp;Humidity;BMP_temperature;BMP_pressure;BME280_temperature;BME280_humidity;BME280_pressure;Samples;Min_cycle;Max_cycle;Signal;HPM_P1;HPM_P2
2021/09/25 00:00:49;;;;;;;1.50;1.00;;;15.70;98.20;;;;;;5033380;28;20536;-78
2021/09/25 00:03:16;;;;;;;1.57;1.00;;;15.60;98.20;;;;;;5032006;28;20485;-78
2021/09/25 00:05:43;;;;;;;1.57;1.00;;;15.60;98.20;;;;;;5037992;28;20591;-78
2021/09/25 00:08:10;;;;;;;1.53;1.00;;;15.60;98.20;;;;;;5044398;28;20549;-78
2021/09/25 00:10:38;;;;;;;1.50;1.00;;;15.60;98.20;;;;;;5035273;28;20463;-78
2021/09/25 00:13:05;;;;;;;1.50;0.93;;;15.50;98.20;;;;;;5035494;28;20780;-79
2021/09/25 00:15:34;;;;;;;1.53;1.00;;;15.50;98.20;;;;;;5034322;28;20463;-81
2021/09/25 00:18:02;;;;;;;1.50;1.00;;;15.50;98.20;;;;;;5037152;28;20520;-79
2021/09/25 00:20:29;;;;;;;1.50;1.00;;;15.50;98.20;;;;;;5043186;28;20490;-79
2021/09/25 00:22:56;;;;;;;1.50;1.00;;;15.50;98.20;;;;;;5035489;28;20463;-79
2021/09/25 00:25:24;;;;;;;1.57;1.00;;;15.40;98.20;;;;;;5030353;28;20470;-79
2021/09/25 00:27:52;;;;;;;1.53;1.00;;;15.40;98.20;;;;;;5035621;28;20466;-79
2021/09/25 00:30:19;;;;;;;1.60;1.00;;;15.40;98.20;;;;;;5035794;28;20470;-80
2021/09/25 00:32:49;;;;;;;1.60;1.10;;;15.40;98.20;;;;;;5040469;28;20485;-79
2021/09/25 00:35:17;;;;;;;1.50;1.00;;;15.40;98.20;;;;;;5035943;28;20530;-80
2021/09/25 00:37:43;;;;;;;1.50;1.00;;;15.40;98.20;;;;;;5033654;28;20463;-80
2021/09/25 00:40:13;;;;;;;1.50;1.00;;;15.40;98.20;;;;;;5033573;28;20459;-79
2021/09/25 00:42:40;;;;;;;1.50;0.97;;;15.30;98.20;;;;;;5038413;28;20828;-80
2021/09/25 00:45:09;;;;;;;1.57;1.00;;;15.30;98.20;;;;;;5030925;28;21001;-79
2021/09/25 00:47:36;;;;;;;1.53;1.00;;;15.30;98.20;;;;;;5030827;28;20498;-79
2021/09/25 00:50:06;;;;;;;1.53;1.00;;;15.30;98.20;;;;;;5045643;28;20474;-80
2021/09/25 00:52:33;;;;;;;1.57;1.00;;;15.30;98.20;;;;;;5036639;28;20578;-80
2021/09/25 00:55:02;;;;;;;1.57;1.00;;;15.30;98.20;;;;;;5031514;28;20558;-81
2021/09/25 00:57:29;;;;;;;1.50;1.00;;;15.20;98.20;;;;;;5031646;28;20487;-79
2021/09/25 00:59:56;;;;;;;1.50;1.00;;;15.20;98.20;;;;;;5042401;28;20464;-80
2021/09/25 01:02:23;;;;;;;1.53;1.00;;;15.20;98.20;;;;;;5036370;28;20451;-80
2021/09/25 01:04:50;;;;;;;1.50;1.00;;;15.20;98.20;;;;;;5034047;28;20482;-79
2021/09/25 01:07:19;;;;;;;1.50;1.00;;;15.20;98.20;;;;;;5042041;28;20545;-79
2021/09/25 01:09:46;;;;;;;1.53;1.10;;;15.20;98.20;;;;;;5031995;28;20473;-79
2021/09/25 01:12:13;;;;;;;1.57;1.00;;;15.10;98.20;;;;;;5032019;28;20494;-79
2021/09/25 01:14:40;;;;;;;1.50;1.00;;;15.10;98.20;;;;;;5033763;28;20478;-80
2021/09/25 01:17:09;;;;;;;1.60;1.10;;;15.10;98.20;;;;;;5041352;28;20482;-78
2021/09/25 01:19:36;;;;;;;1.53;1.00;;;15.10;98.20;;;;;;5036718;28;20520;-79
2021/09/25 01:22:05;;;;;;;1.50;1.00;;;15.10;98.20;;;;;;5041635;28;20885;-79
2021/09/25 01:24:33;;;;;;;1.57;1.10;;;15.10;98.20;;;;;;5037094;28;20467;-78
2021/09/25 01:26:59;;;;;;;1.57;1.00;;;15.10;98.20;;;;;;5030561;28;20506;-78
2021/09/25 01:29:27;;;;;;;1.60;1.10;;;15.00;98.20;;;;;;5033354;28;20510;-79
2021/09/25 01:31:54;;;;;;;1.50;1.00;;;15.00;98.20;;;;;;5040646;28;20486;-78
2021/09/25 01:34:21;;;;;;;1.60;1.00;;;15.00;98.20;;;;;;5013353;28;20476;-78
2021/09/25 01:36:49;;;;;;;1.50;1.00;;;15.00;98.20;;;;;;5031078;28;20551;-79
2021/09/25 01:39:17;;;;;;;1.60;1.00;;;14.90;98.20;;;;;;5033408;28;20465;-78
2021/09/25 01:41:44;;;;;;;1.57;1.00;;;14.90;98.20;;;;;;5035587;28;20535;-79
2021/09/25 01:44:11;;;;;;;1.60;1.00;;;14.90;98.20;;;;;;5039698;28;20471;-78
2021/09/25 01:46:38;;;;;;;1.50;1.00;;;14.90;98.20;;;;;;5029622;28;20479;-78
2021/09/25 01:49:05;;;;;;;1.57;1.00;;;14.90;98.20;;;;;;5037067;28;20459;-78
2021/09/25 01:51:32;;;;;;;1.50;1.00;;;14.90;98.20;;;;;;5033742;28;20459;-79
2021/09/25 01:53:58;;;;;;;1.53;1.00;;;14.90;98.20;;;;;;5039931;28;20467;-79
2021/09/25 01:56:27;;;;;;;1.53;1.00;;;14.90;98.20;;;;;;5029895;28;20491;-78
2021/09/25 01:58:53;;;;;;;1.53;1.00;;;14.90;98.20;;;;;;5028184;28;20475;-78
2021/09/25 02:01:20;;;;;;;1.50;1.00;;;14.80;98.20;;;;;;5041374;28;20473;-79
2021/09/25 02:03:47;;;;;;;1.50;1.10;;;14.80;98.20;;;;;;5032302;28;20467;-78
2021/09/25 02:06:14;;;;;;;1.50;1.00;;;14.80;98.20;;;;;;5034278;28;20838;-79
2021/09/25 02:08:43;;;;;;;1.50;1.00;;;14.80;98.20;;;;;;5034923;28;20470;-78
2021/09/25 02:11:10;;;;;;;1.57;1.00;;;14.80;98.20;;;;;;5037288;28;20894;-79
2021/09/25 02:13:39;;;;;;;1.50;0.97;;;14.80;98.20;;;;;;5033783;28;20848;-79
2021/09/25 02:16:05;;;;;;;1.60;1.10;;;14.70;98.20;;;;;;5032549;28;20487;-78
2021/09/25 02:18:33;;;;;;;1.53;1.10;;;14.70;98.20;;;;;;5033577;28;20462;-79
2021/09/25 02:21:00;;;;;;;1.53;1.00;;;14.70;98.20;;;;;;5032551;28;20463;-78
2021/09/25 02:23:26;;;;;;;1.53;1.00;;;14.70;98.20;;;;;;5032467;28;20938;-78
2021/09/25 02:25:53;;;;;;;1.50;1.03;;;14.60;98.20;;;;;;5028637;28;20490;-80
2021/09/25 02:28:21;;;;;;;1.50;1.00;;;14.70;98.20;;;;;;5039831;28;21081;-80
2021/09/25 02:30:49;;;;;;;1.50;1.00;;;14.70;98.20;;;;;;5040092;28;20977;-79
2021/09/25 02:33:16;;;;;;;1.50;1.00;;;14.60;98.20;;;;;;5032594;28;20505;-79
2021/09/25 02:35:45;;;;;;;1.50;1.00;;;14.60;98.20;;;;;;5031404;28;20491;-79
2021/09/25 02:38:12;;;;;;;1.60;1.00;;;14.70;98.20;;;;;;5035673;28;20463;-79
2021/09/25 02:40:39;;;;;;;1.57;1.10;;;14.70;98.20;;;;;;5039168;28;20473;-79
2021/09/25 02:43:06;;;;;;;1.50;1.00;;;14.60;98.20;;;;;;5031244;28;20475;-79
2021/09/25 02:45:34;;;;;;;1.50;1.00;;;14.60;98.20;;;;;;5032582;28;20925;-79
2021/09/25 02:48:03;;;;;;;1.50;1.00;;;14.60;98.20;;;;;;5029398;28;20457;-79
2021/09/25 02:50:33;;;;;;;1.50;1.00;;;14.60;98.20;;;;;;5039629;28;21025;-79
2021/09/25 02:53:00;;;;;;;1.57;1.07;;;14.60;98.20;;;;;;5040098;28;20486;-79
2021/09/25 02:55:27;;;;;;;1.50;1.00;;;14.60;98.20;;;;;;5034396;28;20458;-79
2021/09/25 02:57:53;;;;;;;1.50;1.00;;;14.50;98.20;;;;;;5032250;28;20468;-79
2021/09/25 03:00:22;;;;;;;1.57;1.00;;;14.50;98.20;;;;;;5038521;28;21002;-79
2021/09/25 03:02:49;;;;;;;1.50;1.00;;;14.50;98.20;;;;;;5038159;28;20792;-79
2021/09/25 03:05:17;;;;;;;1.53;1.00;;;14.50;98.20;;;;;;5029835;28;20523;-79
2021/09/25 03:07:45;;;;;;;1.53;1.00;;;14.50;98.20;;;;;;5033540;28;20773;-79
2021/09/25 03:10:12;;;;;;;1.50;1.00;;;14.50;98.20;;;;;;5029553;28;20474;-79
2021/09/25 03:12:39;;;;;;;1.50;1.00;;;14.50;98.20;;;;;;5036119;28;20871;-79
2021/09/25 03:15:07;;;;;;;1.50;1.00;;;14.50;98.20;;;;;;5053667;28;20473;-79
2021/09/25 03:17:34;;;;;;;1.50;1.00;;;14.50;98.20;;;;;;5036394;28;20674;-79
2021/09/25 03:20:01;;;;;;;1.50;1.00;;;14.50;98.20;;;;;;5037645;28;20477;-80
2021/09/25 03:22:29;;;;;;;1.50;1.00;;;14.50;98.20;;;;;;5046219;28;20470;-79
2021/09/25 03:24:56;;;;;;;1.53;1.00;;;14.40;98.20;;;;;;5032796;28;20463;-79
2021/09/25 03:27:24;;;;;;;1.50;1.03;;;14.40;98.20;;;;;;5028744;28;20932;-79
2021/09/25 03:29:51;;;;;;;1.50;1.03;;;14.40;98.20;;;;;;5034717;28;20549;-79
2021/09/25 03:32:19;;;;;;;1.50;1.00;;;14.40;98.20;;;;;;5033033;28;20487;-79
2021/09/25 03:34:45;;;;;;;1.57;1.00;;;14.40;98.20;;;;;;5022432;28;20468;-79
2021/09/25 03:37:12;;;;;;;1.50;1.00;;;14.40;98.20;;;;;;5029679;28;20562;-79
2021/09/25 03:39:40;;;;;;;1.50;1.10;;;14.40;98.20;;;;;;5033104;28;20991;-79
2021/09/25 03:42:07;;;;;;;1.50;1.07;;;14.40;98.20;;;;;;5036054;28;20464;-79
2021/09/25 03:44:34;;;;;;;1.50;1.00;;;14.40;98.20;;;;;;5030431;28;20476;-78
2021/09/25 03:47:01;;;;;;;1.50;1.00;;;14.40;98.20;;;;;;5045399;28;20506;-79
2021/09/25 03:49:27;;;;;;;1.50;1.10;;;14.40;98.20;;;;;;5032562;28;21061;-78
2021/09/25 03:51:55;;;;;;;1.50;1.00;;;14.40;98.20;;;;;;5038018;28;21173;-79
2021/09/25 03:54:22;;;;;;;1.53;1.00;;;14.30;98.20;;;;;;5038223;28;20517;-79
2021/09/25 03:56:50;;;;;;;1.50;1.00;;;14.30;98.20;;;;;;5036419;28;20494;-79
2021/09/25 03:59:17;;;;;;;1.50;1.00;;;14.30;98.20;;;;;;5033286;28;20673;-79
2021/09/25 04:01:44;;;;;;;1.50;1.00;;;14.30;98.20;;;;;;5035120;28;20835;-78
2021/09/25 04:04:10;;;;;;;1.53;1.00;;;14.30;98.20;;;;;;5034257;28;20463;-78
2021/09/25 04:06:38;;;;;;;1.50;1.00;;;14.30;98.20;;;;;;5030469;28;20491;-78
2021/09/25 04:09:06;;;;;;;1.50;1.00;;;14.30;98.20;;;;;;5035916;28;20521;-78
2021/09/25 04:11:32;;;;;;;1.50;1.00;;;14.30;98.20;;;;;;5034265;28;20556;-78
2021/09/25 04:14:01;;;;;;;1.50;1.00;;;14.30;98.20;;;;;;5039071;28;20505;-78
2021/09/25 04:16:28;;;;;;;1.57;1.10;;;14.40;98.20;;;;;;5039832;28;20483;-78
2021/09/25 04:18:54;;;;;;;1.50;1.00;;;14.40;98.20;;;;;;5035625;28;20482;-79
2021/09/25 04:21:21;;;;;;;1.50;1.10;;;14.40;98.20;;;;;;5029065;28;20471;-79
2021/09/25 04:23:48;;;;;;;1.53;1.00;;;14.40;98.20;;;;;;5029912;28;20486;-79
2021/09/25 04:26:16;;;;;;;1.50;1.10;;;14.40;98.20;;;;;;5034371;28;20482;-78
2021/09/25 04:28:43;;;;;;;1.50;1.00;;;14.30;98.20;;;;;;5033867;28;20459;-78
2021/09/25 04:31:12;;;;;;;1.57;1.10;;;14.30;98.20;;;;;;5029040;28;20475;-79
2021/09/25 04:33:38;;;;;;;1.57;1.10;;;14.40;98.20;;;;;;5036606;28;20494;-79
2021/09/25 04:36:05;;;;;;;1.50;1.00;;;14.40;98.20;;;;;;5038513;28;20478;-78
2021/09/25 04:38:32;;;;;;;1.50;1.00;;;14.40;98.20;;;;;;5032878;28;20478;-78
2021/09/25 04:40:59;;;;;;;1.50;1.00;;;14.40;98.20;;;;;;5042775;28;20473;-80
2021/09/25 04:43:26;;;;;;;1.60;1.10;;;14.50;98.20;;;;;;5037504;28;20626;-79
2021/09/25 04:45:53;;;;;;;1.50;1.00;;;14.50;98.20;;;;;;5032718;28;20494;-79
2021/09/25 04:48:21;;;;;;;1.60;1.10;;;14.50;98.20;;;;;;5029823;28;20862;-82
2021/09/25 04:50:48;;;;;;;1.50;1.00;;;14.50;98.20;;;;;;5034581;28;20458;-80
2021/09/25 04:53:16;;;;;;;1.57;1.00;;;14.50;98.20;;;;;;5032798;28;20486;-82
2021/09/25 04:55:44;;;;;;;1.50;1.00;;;14.50;98.20;;;;;;5032808;28;20491;-83
2021/09/25 04:58:11;;;;;;;1.57;1.10;;;14.60;98.20;;;;;;5032192;28;20491;-83
2021/09/25 05:00:39;;;;;;;1.50;1.00;;;14.60;98.20;;;;;;5033332;28;20542;-81
2021/09/25 05:03:06;;;;;;;1.50;1.00;;;14.60;98.20;;;;;;5036968;28;20530;-81
2021/09/25 05:05:35;;;;;;;1.50;1.00;;;14.60;98.20;;;;;;5042113;28;20450;-81
2021/09/25 05:08:02;;;;;;;1.50;1.00;;;14.60;98.20;;;;;;5045791;28;20519;-83
2021/09/25 05:10:29;;;;;;;1.50;1.00;;;14.70;98.20;;;;;;5034115;28;20466;-81
2021/09/25 05:12:56;;;;;;;1.50;1.00;;;14.70;98.20;;;;;;5036959;28;20943;-79
2021/09/25 05:15:23;;;;;;;1.50;1.00;;;14.70;98.20;;;;;;5023871;28;20463;-79
2021/09/25 05:17:50;;;;;;;1.50;1.00;;;14.70;98.20;;;;;;5034164;28;20469;-79
2021/09/25 05:20:18;;;;;;;1.57;1.00;;;14.70;98.20;;;;;;5044728;28;20477;-79
2021/09/25 05:22:47;;;;;;;1.50;1.10;;;14.70;98.20;;;;;;5029932;28;20463;-79
2021/09/25 05:25:15;;;;;;;1.50;1.00;;;14.70;98.20;;;;;;5028649;28;20456;-80
2021/09/25 05:27:43;;;;;;;1.50;1.00;;;14.70;98.20;;;;;;5032364;28;20527;-79
2021/09/25 05:30:12;;;;;;;1.50;1.00;;;14.70;98.20;;;;;;5030727;28;20464;-79
2021/09/25 05:32:40;;;;;;;1.50;1.00;;;14.70;98.20;;;;;;5028022;28;20499;-79
2021/09/25 05:35:09;;;;;;;1.50;1.00;;;14.70;98.20;;;;;;5029190;28;20933;-79
2021/09/25 05:37:37;;;;;;;1.57;1.07;;;14.70;98.20;;;;;;5033311;28;20835;-79
2021/09/25 05:40:07;;;;;;;1.57;1.00;;;14.70;98.20;;;;;;5031231;28;20470;-79
2021/09/25 05:42:38;;;;;;;1.50;1.00;;;14.70;98.20;;;;;;5037313;28;20878;-79
2021/09/25 05:45:06;;;;;;;1.57;1.10;;;14.80;98.20;;;;;;5037964;28;20481;-79
2021/09/25 05:47:34;;;;;;;1.53;1.00;;;14.80;98.20;;;;;;5030064;28;20527;-79
2021/09/25 05:50:01;;;;;;;1.57;1.00;;;14.80;98.20;;;;;;5029798;28;20455;-80
2021/09/25 05:52:32;;;;;;;1.53;1.00;;;14.80;98.20;;;;;;5036539;28;20455;-83
2021/09/25 05:55:02;;;;;;;1.50;1.00;;;14.90;98.20;;;;;;5032484;28;20483;-80
2021/09/25 05:57:34;;;;;;;1.53;1.00;;;14.90;98.20;;;;;;5035937;28;20574;-81
2021/09/25 06:00:02;;;;;;;1.53;1.10;;;14.90;98.20;;;;;;5034324;28;20495;-79
2021/09/25 06:02:31;;;;;;;1.50;1.00;;;14.90;98.20;;;;;;5031840;28;20505;-80
2021/09/25 06:04:59;;;;;;;1.53;1.00;;;15.00;98.20;;;;;;5032074;28;20553;-80
2021/09/25 06:07:35;;;;;;;1.50;1.00;;;15.00;98.20;;;;;;5043704;28;20486;-82
2021/09/25 06:10:04;;;;;;;1.50;1.00;;;15.00;98.20;;;;;;5034747;28;20801;-80
2021/09/25 06:12:33;;;;;;;1.50;1.00;;;15.00;98.20;;;;;;5032200;28;20502;-81
2021/09/25 06:15:04;;;;;;;1.50;1.00;;;15.00;98.20;;;;;;5031682;28;20949;-81
2021/09/25 06:17:35;;;;;;;1.53;1.00;;;15.00;98.20;;;;;;5032376;28;20491;-80
2021/09/25 06:20:03;;;;;;;1.50;1.00;;;15.10;98.20;;;;;;5031890;28;20478;-81
2021/09/25 06:22:33;;;;;;;1.60;1.10;;;15.10;98.20;;;;;;5031510;28;20471;-82
2021/09/25 06:25:00;;;;;;;1.50;1.00;;;15.10;98.20;;;;;;5031587;28;20463;-81
2021/09/25 06:27:28;;;;;;;1.50;1.00;;;15.20;98.20;;;;;;5033951;28;20520;-80
2021/09/25 06:29:58;;;;;;;1.50;1.00;;;15.20;98.20;;;;;;5030132;28;20468;-79
2021/09/25 06:32:25;;;;;;;1.60;1.20;;;15.20;98.20;;;;;;5029507;28;20478;-79
2021/09/25 06:34:53;;;;;;;1.53;1.00;;;15.30;98.20;;;;;;5028151;28;20491;-79
2021/09/25 06:37:21;;;;;;;1.57;1.00;;;15.30;98.20;;;;;;5035363;28;20479;-79
2021/09/25 06:39:49;;;;;;;1.50;0.97;;;15.30;98.20;;;;;;5033104;28;20494;-79
2021/09/25 06:42:17;;;;;;;1.50;1.00;;;15.40;98.20;;;;;;5037237;28;20466;-79
2021/09/25 06:44:44;;;;;;;1.60;1.10;;;15.40;98.20;;;;;;5036087;28;20628;-79
2021/09/25 06:47:13;;;;;;;1.53;1.00;;;15.40;98.20;;;;;;5033969;28;20483;-79
2021/09/25 06:49:41;;;;;;;1.50;1.00;;;15.40;98.20;;;;;;5034558;28;20467;-79
2021/09/25 06:52:10;;;;;;;1.60;1.00;;;15.50;98.20;;;;;;5040925;28;20462;-79
2021/09/25 06:54:39;;;;;;;1.57;1.00;;;15.50;98.20;;;;;;5040014;28;20482;-79
2021/09/25 06:57:10;;;;;;;1.53;1.00;;;15.50;98.20;;;;;;5040258;28;20493;-79
2021/09/25 06:59:41;;;;;;;1.53;1.00;;;15.60;98.20;;;;;;5045855;28;20737;-79
2021/09/25 07:02:09;;;;;;;1.60;1.00;;;15.60;98.20;;;;;;5044382;28;20561;-79
2021/09/25 07:04:38;;;;;;;1.50;1.00;;;15.70;98.20;;;;;;5038197;28;20841;-79
2021/09/25 07:07:06;;;;;;;1.50;1.00;;;15.70;98.20;;;;;;5035560;28;20883;-79
2021/09/25 07:09:34;;;;;;;1.50;1.00;;;15.70;98.20;;;;;;5040509;28;20469;-79
2021/09/25 07:12:04;;;;;;;1.50;1.00;;;15.80;98.20;;;;;;5039187;28;20462;-79
2021/09/25 07:14:32;;;;;;;1.50;1.00;;;15.90;98.20;;;;;;5042955;28;20486;-79
2021/09/25 07:17:01;;;;;;;1.50;1.00;;;15.90;98.20;;;;;;5038874;28;20757;-79
2021/09/25 07:19:29;;;;;;;1.57;1.00;;;16.00;98.20;;;;;;5042676;28;20485;-79
2021/09/25 07:21:59;;;;;;;1.50;0.90;;;16.10;98.20;;;;;;5042399;28;20467;-80
2021/09/25 07:24:26;;;;;;;1.50;1.00;;;16.10;98.20;;;;;;5041753;28;20989;-79
2021/09/25 07:26:53;;;;;;;1.50;1.00;;;16.20;98.20;;;;;;5042835;28;20478;-79
2021/09/25 07:29:20;;;;;;;1.50;1.00;;;16.30;98.20;;;;;;5045535;28;20466;-79
2021/09/25 07:31:47;;;;;;;1.50;1.00;;;16.30;98.20;;;;;;5045667;28;20472;-80
2021/09/25 07:34:14;;;;;;;1.50;0.90;;;16.30;98.20;;;;;;5041767;28;20507;-80
2021/09/25 07:36:41;;;;;;;1.50;0.90;;;16.40;98.20;;;;;;5025045;28;21057;-80
2021/09/25 07:39:10;;;;;;;1.50;1.00;;;16.50;98.20;;;;;;5031945;28;20463;-81
2021/09/25 07:41:37;;;;;;;1.57;0.90;;;16.60;98.20;;;;;;5033086;28;20521;-79
2021/09/25 07:44:05;;;;;;;1.50;1.03;;;16.70;98.20;;;;;;5039096;28;20470;-80
2021/09/25 07:46:32;;;;;;;1.50;1.00;;;16.70;98.20;;;;;;5036507;28;20599;-79
2021/09/25 07:48:59;;;;;;;1.53;1.00;;;16.80;98.20;;;;;;5035455;28;20463;-79
2021/09/25 07:51:27;;;;;;;1.50;1.00;;;16.90;98.20;;;;;;5032493;28;20907;-79
2021/09/25 07:53:54;;;;;;;1.50;1.00;;;16.90;98.20;;;;;;5036056;28;20875;-78
2021/09/25 07:56:23;;;;;;;1.60;1.00;;;17.00;98.20;;;;;;5039702;28;20487;-79
2021/09/25 07:58:50;;;;;;;1.50;1.00;;;17.00;98.20;;;;;;5043957;28;20480;-79
2021/09/25 08:01:17;;;;;;;1.50;0.90;;;17.10;98.20;;;;;;5036804;28;20546;-78
2021/09/25 08:03:44;;;;;;;1.53;0.97;;;17.20;98.20;;;;;;5033058;28;20893;-79
2021/09/25 08:06:11;;;;;;;1.53;0.90;;;17.20;98.20;;;;;;5029758;28;20566;-79
2021/09/25 08:08:39;;;;;;;1.50;1.00;;;17.30;98.20;;;;;;5032760;28;20470;-79
2021/09/25 08:11:06;;;;;;;1.50;1.00;;;17.40;98.20;;;;;;5032025;28;21183;-79
2021/09/25 08:13:34;;;;;;;1.50;0.90;;;17.40;98.20;;;;;;5032805;28;20459;-82
2021/09/25 08:16:03;;;;;;;1.50;0.90;;;17.50;98.20;;;;;;5036727;28;20479;-81
2021/09/25 08:18:30;;;;;;;1.53;0.97;;;17.60;98.20;;;;;;5037093;28;20467;-83
2021/09/25 08:20:57;;;;;;;1.50;0.90;;;17.70;98.20;;;;;;5038424;28;20528;-81
2021/09/25 08:23:25;;;;;;;1.57;1.00;;;17.80;98.20;;;;;;5032617;28;20472;-82
2021/09/25 08:25:53;;;;;;;1.53;0.90;;;17.90;98.20;;;;;;5041337;28;20947;-80
2021/09/25 08:28:20;;;;;;;1.53;0.90;;;18.00;98.20;;;;;;5024505;28;20459;-79
2021/09/25 08:30:49;;;;;;;1.50;0.93;;;18.10;98.20;;;;;;5030982;28;20490;-80
2021/09/25 08:33:16;;;;;;;1.50;0.90;;;18.30;98.20;;;;;;5031886;28;20474;-79
2021/09/25 08:35:43;;;;;;;1.60;1.00;;;18.40;98.20;;;;;;5027601;28;20487;-81
2021/09/25 08:38:10;;;;;;;1.50;0.90;;;18.60;98.20;;;;;;5039497;28;20472;-80
2021/09/25 08:40:37;;;;;;;1.53;1.00;;;18.80;98.20;;;;;;5030274;28;20929;-80
2021/09/25 08:43:04;;;;;;;1.50;1.00;;;19.00;98.20;;;;;;5031791;28;20509;-79
2021/09/25 08:45:32;;;;;;;1.50;1.00;;;19.10;98.20;;;;;;5034497;28;20611;-79
2021/09/25 08:48:00;;;;;;;1.53;0.90;;;19.30;98.20;;;;;;5036769;28;20511;-79
2021/09/25 08:50:28;;;;;;;1.50;0.90;;;19.40;98.20;;;;;;5040951;28;20479;-79
2021/09/25 08:52:55;;;;;;;1.53;0.90;;;19.60;98.20;;;;;;5027788;28;20490;-79
2021/09/25 08:55:22;;;;;;;1.60;1.00;;;19.60;98.20;;;;;;5030535;28;20996;-79
2021/09/25 08:57:50;;;;;;;1.60;1.33;;;19.70;98.20;;;;;;5028858;28;20463;-79
2021/09/25 09:00:38;;;;;;;1.50;0.90;;;19.80;98.20;;;;;;5029761;28;20483;-80
2021/09/25 09:03:33;;;;;;;1.53;0.93;;;19.80;98.20;;;;;;5025289;28;20474;-80
2021/09/25 09:06:11;;;;;;;1.50;0.90;;;20.00;98.20;;;;;;5032094;28;20510;-80
2021/09/25 09:08:40;;;;;;;1.50;0.90;;;20.00;98.20;;;;;;5034588;28;20616;-79
2021/09/25 09:11:08;;;;;;;1.53;0.90;;;20.20;98.20;;;;;;5022923;28;20967;-80
2021/09/25 09:13:37;;;;;;;1.50;1.00;;;20.30;98.20;;;;;;5027896;28;20539;-79
2021/09/25 09:16:06;;;;;;;1.53;0.90;;;20.40;97.10;;;;;;5023086;28;21017;-80
2021/09/25 09:18:38;;;;;;;1.50;0.90;;;20.50;96.70;;;;;;5028360;28;20470;-79
2021/09/25 09:21:16;;;;;;;1.50;0.90;;;20.50;95.70;;;;;;5028303;28;20582;-79
2021/09/25 09:23:45;;;;;;;1.50;0.90;;;20.50;96.50;;;;;;5027335;28;20997;-79
2021/09/25 09:26:16;;;;;;;1.50;0.90;;;20.60;96.50;;;;;;5025194;28;20603;-79
2021/09/25 09:28:44;;;;;;;1.50;0.90;;;20.70;96.30;;;;;;5027150;28;21025;-79
2021/09/25 09:31:12;;;;;;;1.50;0.90;;;20.80;96.40;;;;;;5025578;28;21042;-80
2021/09/25 09:33:42;;;;;;;1.53;0.90;;;21.00;95.80;;;;;;5027522;28;20463;-79
2021/09/25 09:36:16;;;;;;;1.60;1.10;;;21.10;94.30;;;;;;5028667;28;20489;-79
2021/09/25 09:38:49;;;;;;;1.50;0.90;;;21.20;94.50;;;;;;5031464;28;20545;-79
2021/09/25 09:41:17;;;;;;;1.50;0.90;;;21.20;94.20;;;;;;5026362;28;20958;-79
2021/09/25 09:43:44;;;;;;;1.50;0.90;;;21.30;94.10;;;;;;5025539;28;20499;-79
2021/09/25 09:46:11;;;;;;;1.50;0.90;;;21.40;94.30;;;;;;5026039;28;20513;-80
2021/09/25 09:48:40;;;;;;;1.50;0.90;;;21.60;94.30;;;;;;5026578;28;20470;-79
2021/09/25 09:51:07;;;;;;;1.50;0.90;;;21.80;94.30;;;;;;5026265;28;20467;-79
2021/09/25 09:53:44;;;;;;;1.50;0.90;;;21.90;93.20;;;;;;5027728;28;20463;-79
2021/09/25 09:56:23;;;;;;;1.50;0.90;;;22.00;92.50;;;;;;5024735;28;21048;-79
2021/09/25 09:58:58;;;;;;;1.50;0.90;;;22.10;92.20;;;;;;5025812;28;20839;-79
2021/09/25 10:01:25;;;;;;;1.53;0.90;;;22.10;91.70;;;;;;5027347;28;20465;-79
2021/09/25 10:03:53;;;;;;;1.53;0.90;;;22.20;92.50;;;;;;5026757;28;20499;-79
2021/09/25 10:06:20;;;;;;;1.50;0.90;;;22.40;91.80;;;;;;5036572;28;20483;-79
2021/09/25 10:08:48;;;;;;;1.53;0.90;;;22.50;91.10;;;;;;5029484;28;21022;-79
2021/09/25 10:11:16;;;;;;;1.53;0.90;;;22.60;91.20;;;;;;5026947;28;20467;-79
2021/09/25 10:13:43;;;;;;;1.50;0.90;;;22.70;90.40;;;;;;5031924;28;20468;-79
2021/09/25 10:16:12;;;;;;;1.50;0.90;;;22.80;90.60;;;;;;5037474;28;20886;-79
2021/09/25 10:18:40;;;;;;;1.50;0.90;;;23.00;90.40;;;;;;5033754;28;20470;-79
2021/09/25 10:21:12;;;;;;;1.50;0.90;;;23.10;88.40;;;;;;5037027;28;20491;-79
2021/09/25 10:23:55;;;;;;;1.50;0.90;;;23.00;88.70;;;;;;5039474;28;20466;-80
2021/09/25 10:26:22;;;;;;;1.50;0.90;;;23.10;88.10;;;;;;5041026;28;20529;-79
2021/09/25 10:28:58;;;;;;;1.50;0.90;;;23.00;88.90;;;;;;5030436;28;20460;-78
2021/09/25 10:31:25;;;;;;;1.50;0.90;;;23.00;89.10;;;;;;5030551;28;20562;-79
2021/09/25 10:34:10;;;;;;;2.00;1.00;;;23.10;89.50;;;;;;5041427;28;21024;-79
2021/09/25 10:36:43;;;;;;;1.50;0.90;;;23.30;88.10;;;;;;5034815;28;21078;-79
2021/09/25 10:39:24;;;;;;;1.50;0.90;;;23.40;88.50;;;;;;5033122;28;20525;-79
2021/09/25 10:41:59;;;;;;;1.57;0.90;;;23.60;88.60;;;;;;5031318;28;20572;-80
2021/09/25 10:44:29;;;;;;;1.50;0.87;;;23.90;87.60;;;;;;5037045;28;20649;-78
2021/09/25 10:47:11;;;;;;;1.50;0.90;;;24.20;87.10;;;;;;5030079;28;20475;-79
2021/09/25 10:49:43;;;;;;;1.50;0.90;;;24.50;86.00;;;;;;5031422;28;20462;-79
2021/09/25 10:52:12;;;;;;;1.57;0.90;;;24.70;85.50;;;;;;5038037;28;20460;-79
2021/09/25 10:54:41;;;;;;;1.50;0.90;;;24.80;84.70;;;;;;5031802;28;20486;-79
2021/09/25 10:57:09;;;;;;;1.50;0.90;;;24.90;84.00;;;;;;5032631;28;20812;-79
2021/09/25 10:59:57;;;;;;;1.57;0.90;;;25.00;84.20;;;;;;5039483;28;20958;-80
2021/09/25 11:02:42;;;;;;;1.50;0.90;;;25.00;83.40;;;;;;5036972;28;20533;-79
2021/09/25 11:05:09;;;;;;;1.50;0.80;;;24.90;84.30;;;;;;5034094;28;20565;-80
2021/09/25 11:07:40;;;;;;;1.50;0.90;;;24.90;83.10;;;;;;5031529;28;20482;-80
2021/09/25 11:10:08;;;;;;;1.50;0.90;;;24.80;83.10;;;;;;5025828;28;20455;-82
2021/09/25 11:12:45;;;;;;;1.53;0.90;;;24.80;83.60;;;;;;5036727;28;20970;-81
2021/09/25 11:15:31;;;;;;;1.50;0.90;;;24.80;83.30;;;;;;5030920;28;20478;-81
2021/09/25 11:18:25;;;;;;;1.50;0.90;;;24.80;84.10;;;;;;5028545;28;20578;-80
2021/09/25 11:21:01;;;;;;;1.50;0.90;;;25.10;82.30;;;;;;5031808;28;21248;-79
2021/09/25 11:23:43;;;;;;;1.50;0.90;;;25.20;82.70;;;;;;5025849;28;20464;-79
2021/09/25 11:26:10;;;;;;;1.50;0.90;;;25.40;81.90;;;;;;5029899;28;20851;-78
2021/09/25 11:28:39;;;;;;;1.50;0.90;;;25.50;82.30;;;;;;5032791;28;20525;-79
2021/09/25 11:31:08;;;;;;;1.50;0.90;;;25.50;80.90;;;;;;5027428;28;20529;-79
2021/09/25 11:33:38;;;;;;;1.50;0.90;;;25.60;81.10;;;;;;5031225;28;20471;-78
2021/09/25 11:36:08;;;;;;;1.50;0.90;;;25.60;81.30;;;;;;5015414;28;20550;-79
2021/09/25 11:38:44;;;;;;;1.50;0.80;;;25.60;80.30;;;;;;5027066;28;20541;-78
2021/09/25 11:41:15;;;;;;;1.50;0.90;;;25.70;81.60;;;;;;5030518;28;20474;-79
2021/09/25 11:43:43;;;;;;;1.50;0.80;;;25.80;80.60;;;;;;5027079;28;20505;-78
2021/09/25 11:46:15;;;;;;;1.50;0.83;;;25.90;80.50;;;;;;5027336;28;20518;-79
2021/09/25 11:48:42;;;;;;;1.50;0.90;;;25.90;79.80;;;;;;5024292;28;20475;-79
2021/09/25 11:51:10;;;;;;;1.50;0.80;;;25.90;80.20;;;;;;5024618;28;20514;-79
2021/09/25 11:53:44;;;;;;;1.50;0.90;;;25.90;79.70;;;;;;5032899;28;20467;-78
2021/09/25 11:56:11;;;;;;;1.60;1.00;;;26.00;79.50;;;;;;5032230;28;20551;-78
2021/09/25 11:58:38;;;;;;;1.50;0.90;;;26.10;78.30;;;;;;5031355;28;20477;-78
2021/09/25 12:01:05;;;;;;;1.50;0.90;;;26.10;79.10;;;;;;5029252;28;20485;-79
2021/09/25 12:03:38;;;;;;;1.50;0.90;;;26.10;79.00;;;;;;5027788;28;20602;-77
2021/09/25 12:06:05;;;;;;;1.50;0.90;;;26.10;78.80;;;;;;5022536;28;20490;-79
2021/09/25 12:08:33;;;;;;;1.50;0.83;;;26.10;77.50;;;;;;5028000;28;20494;-78
2021/09/25 12:11:04;;;;;;;1.50;0.90;;;26.10;78.30;;;;;;5029958;28;20487;-78
2021/09/25 12:13:33;;;;;;;1.50;0.90;;;26.10;79.00;;;;;;5026628;28;20666;-77
2021/09/25 12:16:01;;;;;;;1.50;0.90;;;26.10;79.50;;;;;;5024531;28;21070;-77
2021/09/25 12:18:29;;;;;;;1.50;0.90;;;26.20;80.10;;;;;;5029160;28;20495;-79
2021/09/25 12:20:58;;;;;;;1.50;0.90;;;26.30;79.00;;;;;;5029135;28;20827;-78
2021/09/25 12:23:32;;;;;;;1.50;0.90;;;26.30;79.80;;;;;;5028241;28;20597;-78
2021/09/25 12:26:06;;;;;;;1.50;0.90;;;26.30;79.70;;;;;;5024042;28;20505;-77
2021/09/25 12:28:48;;;;;;;1.50;0.90;;;26.30;79.10;;;;;;5035709;28;20470;-83
2021/09/25 12:31:26;;;;;;;1.50;0.90;;;26.30;79.90;;;;;;5032228;28;20573;-82
2021/09/25 12:33:59;;;;;;;1.50;1.00;;;26.40;79.90;;;;;;5035130;28;20458;-78
2021/09/25 12:36:32;;;;;;;1.50;0.80;;;26.50;78.90;;;;;;5018524;28;20542;-77
2021/09/25 12:39:17;;;;;;;1.50;0.90;;;26.60;78.30;;;;;;5025732;28;20490;-76
2021/09/25 12:41:48;;;;;;;1.50;0.80;;;26.70;80.40;;;;;;5023915;28;20553;-77
2021/09/25 12:44:19;;;;;;;1.50;0.90;;;26.70;79.60;;;;;;5024573;28;20479;-78
2021/09/25 12:46:52;;;;;;;1.50;0.90;;;26.70;79.30;;;;;;5023398;28;20574;-77
2021/09/25 12:49:47;;;;;;;1.50;0.83;;;26.70;79.50;;;;;;5029294;28;20522;-77
2021/09/25 12:52:17;;;;;;;1.50;0.80;;;26.70;79.10;;;;;;5022908;28;20481;-77
2021/09/25 12:54:46;;;;;;;1.50;0.90;;;26.90;79.80;;;;;;5024018;28;20989;-77
2021/09/25 12:57:22;;;;;;;1.50;0.90;;;26.90;77.10;;;;;;5031121;28;20494;-77